createdAt,value
2018-12-21T00:00:46.864Z,47.53
2018-12-21T00:03:15.338Z,51.80
2018-12-21T00:05:43.816Z,48.93
2018-12-21T00:08:12.299Z,51.57
2018-12-21T00:10:40.970Z,53.57
2018-12-21T00:13:09.450Z,53.37
2018-12-21T00:15:37.913Z,59.33
2018-12-21T00:18:06.358Z,61.97
2018-12-21T00:20:34.870Z,60.37
2018-12-21T00:23:03.444Z,73.80
2018-12-21T00:25:32.029Z,90.73
2018-12-21T00:28:00.835Z,79.53
2018-12-21T00:30:28.659Z,74.63
2018-12-21T00:33:02.739Z,71.47
2018-12-21T00:35:36.629Z,79.80
2018-12-21T00:38:10.396Z,88.43
2018-12-21T00:40:43.973Z,124.33
2018-12-21T00:43:43.631Z,94.57
2018-12-21T00:46:16.291Z,63.40
2018-12-21T00:48:45.157Z,55.07
2018-12-21T00:51:13.615Z,55.73
2018-12-21T00:53:42.091Z,58.17
2018-12-21T00:56:10.596Z,70.07
2018-12-21T00:58:39.034Z,74.17
2018-12-21T01:01:07.827Z,58.83
2018-12-21T01:03:36.353Z,47.00
2018-12-21T01:06:04.907Z,55.17
2018-12-21T01:08:33.382Z,57.57
2018-12-21T01:11:02.015Z,62.67
2018-12-21T01:13:30.616Z,64.30
2018-12-21T01:15:59.142Z,61.07
2018-12-21T01:18:27.672Z,58.50
2018-12-21T01:20:56.130Z,57.37
2018-12-21T01:23:24.740Z,74.73
2018-12-21T01:25:53.668Z,48.83
2018-12-21T01:28:22.099Z,50.00
2018-12-21T01:30:50.659Z,50.60
2018-12-21T01:33:19.142Z,48.30
2018-12-21T01:35:47.594Z,47.93
2018-12-21T01:38:16.058Z,54.97
2018-12-21T01:40:44.895Z,55.40
2018-12-21T01:43:13.391Z,65.23
2018-12-21T01:45:41.860Z,57.97
2018-12-21T01:48:10.371Z,82.13
2018-12-21T01:50:38.854Z,62.50
2018-12-21T01:53:07.328Z,51.30
2018-12-21T01:55:35.878Z,48.43
2018-12-21T01:58:04.330Z,49.93
2018-12-21T02:00:32.914Z,49.77
2018-12-21T02:03:01.541Z,53.40
2018-12-21T02:05:30.036Z,48.43
2018-12-21T02:07:58.588Z,76.60
2018-12-21T02:10:27.103Z,53.10
2018-12-21T02:12:55.722Z,55.40
2018-12-21T02:15:24.226Z,54.27
2018-12-21T02:17:52.742Z,59.27
2018-12-21T02:20:21.430Z,59.57
2018-12-21T02:22:49.909Z,63.93
2018-12-21T02:25:18.405Z,63.70
2018-12-21T02:27:47.023Z,66.73
2018-12-21T02:30:15.485Z,67.53
2018-12-21T02:32:44.002Z,62.70
2018-12-21T02:35:12.618Z,63.60
2018-12-21T02:37:41.082Z,71.53
2018-12-21T02:40:09.611Z,65.77
2018-12-21T02:42:38.247Z,72.63
2018-12-21T02:45:07.624Z,69.67
2018-12-21T02:47:36.117Z,62.77
2018-12-21T02:50:04.838Z,79.37
2018-12-21T02:52:33.309Z,72.73
2018-12-21T02:55:01.838Z,72.80
2018-12-21T02:57:30.304Z,82.87
2018-12-21T02:59:58.729Z,84.63
2018-12-21T03:02:27.255Z,81.73
2018-12-21T03:04:55.695Z,74.40
2018-12-21T03:07:24.179Z,82.43
2018-12-21T03:09:52.711Z,78.90
2018-12-21T03:12:21.164Z,82.27
2018-12-21T03:14:49.590Z,74.80
2018-12-21T03:17:18.067Z,83.87
2018-12-21T03:19:46.536Z,80.27
2018-12-21T03:22:15.320Z,88.63
2018-12-21T03:24:43.907Z,95.73
2018-12-21T03:27:12.386Z,86.37
2018-12-21T03:29:40.799Z,85.60
2018-12-21T03:32:09.343Z,91.60
2018-12-21T03:34:37.795Z,89.40
2018-12-21T03:37:06.402Z,95.67
2018-12-21T03:39:35.292Z,88.13
2018-12-21T03:42:03.751Z,81.03
2018-12-21T03:44:32.203Z,86.87
2018-12-21T03:47:00.704Z,82.87
2018-12-21T03:49:29.193Z,96.23
2018-12-21T03:51:57.650Z,91.80
2018-12-21T03:54:26.175Z,85.07
2018-12-21T03:56:54.864Z,77.87
2018-12-21T03:59:23.308Z,96.20
2018-12-21T04:01:51.982Z,92.07
2018-12-21T04:04:20.395Z,126.80
2018-12-21T04:06:48.898Z,419.03
2018-12-21T04:09:17.380Z,334.43
2018-12-21T04:11:45.833Z,236.63
2018-12-21T04:14:14.332Z,315.90
2018-12-21T04:16:42.858Z,414.97
2018-12-21T04:19:11.460Z,454.50
2018-12-21T04:21:40.308Z,617.70
2018-12-21T04:24:08.790Z,562.43
2018-12-21T04:26:37.257Z,908.53
2018-12-21T04:29:05.726Z,544.07
2018-12-21T04:31:34.223Z,987.10
2018-12-21T04:34:02.700Z,714.90
2018-12-21T04:36:31.189Z,1266.53
2018-12-21T04:38:59.697Z,1068.70
2018-12-21T04:41:28.177Z,1000.67
2018-12-21T04:43:56.658Z,769.73
2018-12-21T04:46:25.163Z,932.63
2018-12-21T04:48:53.864Z,567.53
2018-12-21T04:51:22.523Z,774.33
2018-12-21T04:53:50.994Z,749.07
2018-12-21T04:56:19.432Z,609.63
2018-12-21T04:58:47.882Z,607.37
2018-12-21T05:01:16.365Z,529.77
2018-12-21T05:03:44.801Z,361.87
2018-12-21T05:06:13.357Z,236.13
2018-12-21T05:08:41.847Z,119.13
2018-12-21T05:11:10.326Z,158.43
2018-12-21T05:13:38.782Z,367.90
2018-12-21T05:16:07.305Z,335.63
2018-12-21T05:18:35.948Z,212.83
2018-12-21T05:21:04.471Z,317.80
2018-12-21T05:23:33.022Z,195.60
2018-12-21T05:26:01.500Z,122.23
2018-12-21T05:28:29.942Z,99.87
2018-12-21T05:30:58.594Z,137.43
2018-12-21T05:33:27.058Z,193.37
2018-12-21T05:35:55.579Z,167.83
2018-12-21T05:38:24.287Z,140.20
2018-12-21T05:40:52.867Z,114.23
2018-12-21T05:43:21.318Z,145.70
2018-12-21T05:45:49.828Z,96.73
2018-12-21T05:48:18.278Z,47.57
2018-12-21T05:50:46.798Z,64.17
2018-12-21T05:53:15.336Z,65.97
2018-12-21T05:55:43.792Z,70.40
2018-12-21T05:58:12.276Z,50.80
2018-12-21T06:00:40.763Z,50.70
2018-12-21T06:03:09.256Z,47.27
2018-12-21T06:05:37.812Z,45.33
2018-12-21T06:08:06.331Z,47.27
2018-12-21T06:10:34.803Z,78.70
2018-12-21T06:13:03.253Z,55.60
2018-12-21T06:15:31.913Z,43.87
2018-12-21T06:18:00.343Z,49.30
2018-12-21T06:20:28.845Z,57.40
2018-12-21T06:22:57.391Z,49.97
2018-12-21T06:25:25.829Z,44.07
2018-12-21T06:27:54.297Z,43.10
2018-12-21T06:30:22.834Z,42.97
2018-12-21T06:32:51.294Z,44.40
2018-12-21T06:35:19.738Z,66.63
2018-12-21T06:37:48.584Z,60.53
2018-12-21T06:40:17.206Z,97.43
2018-12-21T06:42:45.673Z,60.70
2018-12-21T06:45:14.191Z,56.27
2018-12-21T06:47:42.687Z,51.87
2018-12-21T06:50:11.383Z,50.03
2018-12-21T06:52:39.856Z,70.53
2018-12-21T06:55:08.343Z,46.13
2018-12-21T06:57:36.811Z,66.03
2018-12-21T07:00:06.901Z,47.83
2018-12-21T07:02:35.413Z,60.30
2018-12-21T07:05:03.927Z,219.30
2018-12-21T07:07:32.417Z,111.07
2018-12-21T07:10:00.839Z,291.00
2018-12-21T07:12:29.283Z,202.63
2018-12-21T07:14:57.780Z,158.87
2018-12-21T07:17:26.342Z,88.93
2018-12-21T07:19:54.787Z,55.53
2018-12-21T07:22:23.267Z,56.33
2018-12-21T07:24:51.915Z,55.73
2018-12-21T07:27:20.411Z,57.60
2018-12-21T07:29:49.070Z,59.27
2018-12-21T07:32:17.563Z,62.30
2018-12-21T07:34:45.986Z,83.47
2018-12-21T07:37:14.500Z,95.73
2018-12-21T07:39:42.990Z,67.13
2018-12-21T07:42:11.467Z,78.17
2018-12-21T07:44:40.060Z,69.90
2018-12-21T07:47:08.535Z,70.53
2018-12-21T07:49:36.995Z,86.60
2018-12-21T07:52:05.495Z,84.23
2018-12-21T07:54:33.949Z,73.93
2018-12-21T07:57:02.392Z,75.20
2018-12-21T07:59:31.025Z,55.60
2018-12-21T08:01:59.501Z,53.20
2018-12-21T08:04:30.190Z,51.70
2018-12-21T08:06:58.485Z,51.03
2018-12-21T08:09:26.980Z,51.83
2018-12-21T08:11:55.445Z,47.43
2018-12-21T08:14:24.019Z,56.10
2018-12-21T08:16:52.498Z,45.90
2018-12-21T08:19:20.946Z,48.13
2018-12-21T08:21:49.435Z,48.83
2018-12-21T08:24:17.891Z,47.97
2018-12-21T08:26:46.370Z,56.63
2018-12-21T08:29:14.879Z,56.37
2018-12-21T08:31:43.308Z,50.80
2018-12-21T08:34:11.785Z,52.33
2018-12-21T08:36:40.403Z,70.87
2018-12-21T08:39:08.860Z,70.30
2018-12-21T08:41:37.334Z,64.63
2018-12-21T08:44:06.004Z,64.47
2018-12-21T08:46:34.445Z,69.40
2018-12-21T08:49:02.896Z,63.27
2018-12-21T08:51:31.365Z,55.00
2018-12-21T08:53:59.775Z,59.27
2018-12-21T08:56:28.270Z,60.47
2018-12-21T08:58:56.754Z,54.67
2018-12-21T09:01:25.213Z,64.80
2018-12-21T09:03:53.676Z,50.37
2018-12-21T09:06:22.148Z,51.37
2018-12-21T09:08:50.597Z,47.30
2018-12-21T09:11:19.043Z,45.10
2018-12-21T09:13:47.604Z,48.47
2018-12-21T09:16:16.086Z,44.67
2018-12-21T09:18:44.554Z,42.00
2018-12-21T09:21:13.059Z,40.33
2018-12-21T09:23:41.524Z,56.73
2018-12-21T09:26:10.021Z,39.47
2018-12-21T09:28:38.527Z,24.83
2018-12-21T09:31:06.969Z,25.97
2018-12-21T09:33:35.404Z,28.40
2018-12-21T09:36:03.942Z,28.77
2018-12-21T09:38:32.402Z,42.90
2018-12-21T09:41:01.016Z,44.57
2018-12-21T09:43:29.619Z,43.10
2018-12-21T09:45:58.085Z,49.37
2018-12-21T09:48:26.559Z,50.37
2018-12-21T09:50:55.094Z,58.20
2018-12-21T09:53:23.547Z,52.80
2018-12-21T09:55:52.021Z,48.77
2018-12-21T09:58:20.488Z,56.00
2018-12-21T10:00:48.964Z,53.77
2018-12-21T10:03:17.425Z,57.63
2018-12-21T10:05:46.048Z,57.80
2018-12-21T10:08:14.526Z,58.70
2018-12-21T10:10:43.008Z,58.17
2018-12-21T10:13:11.544Z,55.27
2018-12-21T10:15:40.016Z,52.47
2018-12-21T10:18:08.528Z,56.53
2018-12-21T10:20:37.190Z,57.83
2018-12-21T10:23:05.700Z,57.03
2018-12-21T10:25:34.135Z,48.50
2018-12-21T10:28:02.661Z,44.57
2018-12-21T10:30:31.146Z,46.23
2018-12-21T10:32:59.723Z,49.77
2018-12-21T10:35:28.291Z,45.70
2018-12-21T10:37:56.803Z,42.03
2018-12-21T10:40:25.285Z,39.73
2018-12-21T10:42:53.791Z,38.07
2018-12-21T10:45:22.274Z,40.83
2018-12-21T10:47:50.715Z,39.97
2018-12-21T10:50:19.222Z,38.97
2018-12-21T10:52:47.691Z,38.60
2018-12-21T10:55:16.148Z,36.60
2018-12-21T10:57:44.735Z,36.10
2018-12-21T11:00:13.561Z,35.17
2018-12-21T11:02:42.124Z,35.30
2018-12-21T11:05:10.655Z,38.40
2018-12-21T11:07:39.219Z,34.70
2018-12-21T11:10:10.495Z,41.93
2018-12-21T11:12:39.018Z,49.57
2018-12-21T11:15:07.646Z,50.77
2018-12-21T11:17:36.098Z,56.97
2018-12-21T11:20:05.643Z,59.33
2018-12-21T11:22:34.184Z,68.67
2018-12-21T11:25:02.926Z,80.20
2018-12-21T11:27:31.471Z,75.73
2018-12-21T11:29:59.954Z,79.20
2018-12-21T11:32:28.435Z,80.13
2018-12-21T11:34:57.000Z,79.47
2018-12-21T11:37:25.572Z,77.03
2018-12-21T11:39:54.235Z,78.47
2018-12-21T11:42:22.743Z,73.73
2018-12-21T11:44:51.193Z,83.03
2018-12-21T11:47:19.758Z,85.93
2018-12-21T11:49:48.280Z,78.40
2018-12-21T11:52:16.854Z,70.07
2018-12-21T11:54:45.359Z,78.03
2018-12-21T11:57:13.889Z,76.40
2018-12-21T11:59:45.029Z,86.77
2018-12-21T12:02:19.499Z,77.43
2018-12-21T12:04:43.355Z,85.20
2018-12-21T12:07:12.084Z,65.40
2018-12-21T12:09:40.560Z,64.50
2018-12-21T12:12:09.181Z,66.90
2018-12-21T12:14:37.742Z,62.53
2018-12-21T12:17:06.291Z,57.63
2018-12-21T12:19:34.795Z,60.10
2018-12-21T12:22:03.254Z,56.33
2018-12-21T12:24:31.847Z,62.97
2018-12-21T12:27:00.358Z,62.77
2018-12-21T12:29:28.837Z,58.43
2018-12-21T12:31:57.306Z,62.03
2018-12-21T12:34:25.968Z,62.47
2018-12-21T12:36:54.511Z,58.50
2018-12-21T12:39:22.921Z,62.43
2018-12-21T12:41:51.562Z,57.40
2018-12-21T12:44:20.007Z,66.00
2018-12-21T12:46:48.426Z,58.93
2018-12-21T12:49:16.938Z,55.27
2018-12-21T12:51:45.511Z,60.23
2018-12-21T12:54:13.966Z,52.13
2018-12-21T12:56:42.533Z,55.90
2018-12-21T12:59:10.956Z,54.47
2018-12-21T13:01:39.680Z,56.10
2018-12-21T13:04:08.286Z,54.90
2018-12-21T13:06:36.744Z,54.30
2018-12-21T13:09:07.245Z,51.37
2018-12-21T13:11:36.046Z,49.27
2018-12-21T13:14:04.604Z,48.90
2018-12-21T13:16:33.051Z,49.70
2018-12-21T13:19:01.615Z,37.47
2018-12-21T13:21:30.294Z,41.63
2018-12-21T13:23:58.884Z,49.27
2018-12-21T13:26:27.411Z,51.57
2018-12-21T13:28:55.944Z,43.60
2018-12-21T13:31:24.394Z,42.93
2018-12-21T13:33:52.967Z,46.97
2018-12-21T13:36:21.505Z,41.20
2018-12-21T13:38:49.954Z,52.87
2018-12-21T13:41:18.804Z,58.97
2018-12-21T13:43:47.338Z,58.30
2018-12-21T13:46:15.788Z,80.93
2018-12-21T13:48:44.265Z,47.13
2018-12-21T13:51:12.797Z,63.37
2018-12-21T13:53:41.535Z,76.87
2018-12-21T13:56:10.056Z,59.40
2018-12-21T13:58:38.660Z,50.10
2018-12-21T14:01:07.118Z,46.40
2018-12-21T14:03:35.618Z,45.40
2018-12-21T14:06:04.175Z,48.67
2018-12-21T14:08:32.812Z,46.57
2018-12-21T14:11:01.323Z,40.30
2018-12-21T14:13:29.829Z,40.80
2018-12-21T14:15:58.295Z,37.90
2018-12-21T14:18:26.817Z,41.37
2018-12-21T14:20:55.244Z,41.70
2018-12-21T14:23:23.742Z,39.73
2018-12-21T14:25:52.708Z,42.80
2018-12-21T14:28:21.114Z,42.97
2018-12-21T14:30:49.540Z,42.30
2018-12-21T14:33:18.172Z,43.47
2018-12-21T14:35:46.677Z,43.57
2018-12-21T14:38:15.152Z,49.83
2018-12-21T14:40:43.635Z,47.43
2018-12-21T14:43:12.122Z,43.50
2018-12-21T14:45:40.561Z,44.47
2018-12-21T14:48:09.227Z,51.70
2018-12-21T14:50:37.855Z,62.13
2018-12-21T14:53:06.417Z,52.90
2018-12-21T14:55:37.578Z,52.53
2018-12-21T14:58:05.394Z,52.10
2018-12-21T15:00:33.873Z,49.47
2018-12-21T15:03:02.387Z,56.33
2018-12-21T15:05:30.823Z,56.60
2018-12-21T15:07:59.280Z,69.23
2018-12-21T15:10:27.820Z,56.60
2018-12-21T15:12:56.237Z,66.03
2018-12-21T15:15:24.891Z,63.63
2018-12-21T15:17:53.414Z,67.33
2018-12-21T15:20:21.970Z,59.33
2018-12-21T15:22:50.637Z,59.87
2018-12-21T15:25:19.152Z,59.60
2018-12-21T15:27:47.703Z,60.77
2018-12-21T15:30:16.163Z,57.13
2018-12-21T15:32:44.728Z,61.53
2018-12-21T15:35:13.547Z,64.07
2018-12-21T15:37:42.333Z,61.90
2018-12-21T15:40:11.707Z,70.80
2018-12-21T15:42:40.175Z,72.07
2018-12-21T15:45:08.898Z,66.93
2018-12-21T15:47:37.375Z,69.00
2018-12-21T15:50:08.054Z,65.17
2018-12-21T15:52:36.471Z,68.87
2018-12-21T15:55:05.567Z,68.40
2018-12-21T15:57:34.388Z,64.57
2018-12-21T16:00:02.986Z,66.40
2018-12-21T16:02:31.484Z,67.73
2018-12-21T16:05:00.087Z,68.93
2018-12-21T16:07:28.937Z,62.33
2018-12-21T16:09:57.446Z,69.30
2018-12-21T16:12:25.889Z,65.27
2018-12-21T16:14:54.329Z,72.10
2018-12-21T16:17:22.816Z,110.67
2018-12-21T16:19:51.381Z,98.83
2018-12-21T16:22:19.809Z,91.83
2018-12-21T16:24:48.300Z,88.27
2018-12-21T16:27:16.854Z,86.70
2018-12-21T16:29:45.323Z,68.93
2018-12-21T16:32:14.259Z,81.10
2018-12-21T16:34:42.688Z,67.33
2018-12-21T16:37:11.148Z,75.23
2018-12-21T16:39:39.639Z,68.47
2018-12-21T16:42:08.071Z,66.70
2018-12-21T16:44:36.600Z,68.60
2018-12-21T16:47:05.061Z,64.50
2018-12-21T16:49:33.492Z,66.33
2018-12-21T16:52:01.939Z,68.23
2018-12-21T16:54:30.454Z,65.80
2018-12-21T16:56:58.926Z,61.17
2018-12-21T16:59:27.393Z,65.67
2018-12-21T17:01:56.165Z,61.97
2018-12-21T17:04:24.571Z,60.87
2018-12-21T17:06:53.109Z,60.60
2018-12-21T17:09:21.584Z,59.33
2018-12-21T17:11:50.083Z,56.40
2018-12-21T17:14:18.504Z,58.50
2018-12-21T17:16:46.958Z,58.77
2018-12-21T17:19:18.150Z,63.03
2018-12-21T17:21:46.662Z,62.77
2018-12-21T17:24:15.140Z,59.97
2018-12-21T17:26:45.508Z,57.60
2018-12-21T17:29:13.947Z,58.73
2018-12-21T17:31:42.422Z,59.17
2018-12-21T17:34:10.838Z,56.70
2018-12-21T17:36:39.430Z,56.47
2018-12-21T17:39:08.496Z,59.67
2018-12-21T17:41:36.951Z,57.20
2018-12-21T17:44:05.357Z,58.97
2018-12-21T17:46:33.854Z,63.60
2018-12-21T17:49:02.291Z,68.40
2018-12-21T17:51:30.830Z,71.80
2018-12-21T17:53:59.297Z,62.47
2018-12-21T17:56:30.018Z,64.93
2018-12-21T17:58:58.164Z,65.13
2018-12-21T18:01:26.812Z,63.23
2018-12-21T18:04:22.611Z,68.47
2018-12-21T18:06:51.097Z,63.40
2018-12-21T18:09:20.023Z,67.27
2018-12-21T18:11:57.003Z,69.60
2018-12-21T18:14:18.975Z,61.60
2018-12-21T18:16:47.385Z,65.87
2018-12-21T18:19:15.809Z,64.07
2018-12-21T18:21:52.759Z,63.93
2018-12-21T18:24:21.967Z,64.30
2018-12-21T18:26:50.375Z,62.33
2018-12-21T18:29:18.851Z,69.60
2018-12-21T18:31:52.929Z,90.33
2018-12-21T18:34:35.834Z,99.37
2018-12-21T18:37:06.771Z,88.73
2018-12-21T18:39:35.194Z,76.37
2018-12-21T18:42:05.706Z,91.20
2018-12-21T18:44:34.415Z,72.07
2018-12-21T18:47:02.884Z,92.93
2018-12-21T18:49:31.344Z,74.87
2018-12-21T18:51:59.883Z,75.47
2018-12-21T18:54:28.675Z,77.03
2018-12-21T18:57:05.003Z,75.23
2018-12-21T18:59:33.431Z,77.70
2018-12-21T19:02:02.048Z,80.33
2018-12-21T19:04:30.511Z,85.30
2018-12-21T19:06:59.010Z,73.20
2018-12-21T19:09:27.455Z,72.23
2018-12-21T19:11:55.960Z,69.60
2018-12-21T19:14:24.538Z,74.17
2018-12-21T19:16:53.030Z,104.37
2018-12-21T19:19:21.767Z,81.67
2018-12-21T19:21:50.230Z,96.87
2018-12-21T19:24:18.639Z,91.97
2018-12-21T19:26:55.574Z,85.70
2018-12-21T19:29:17.587Z,101.23
2018-12-21T19:31:46.026Z,81.77
2018-12-21T19:34:14.491Z,91.33
2018-12-21T19:36:43.060Z,82.83
2018-12-21T19:39:12.191Z,75.63
2018-12-21T19:41:40.689Z,94.93
2018-12-21T19:44:09.103Z,86.80
2018-12-21T19:46:37.771Z,90.40
2018-12-21T19:49:06.365Z,86.40
2018-12-21T19:51:34.779Z,90.57
2018-12-21T19:54:03.347Z,89.43
2018-12-21T19:57:08.590Z,89.13
2018-12-21T19:59:37.046Z,91.30
2018-12-21T20:02:05.847Z,84.53
2018-12-21T20:04:34.664Z,85.17
2018-12-21T20:07:03.305Z,78.13
2018-12-21T20:09:31.728Z,78.93
2018-12-21T20:12:00.218Z,88.30
2018-12-21T20:14:28.778Z,108.07
2018-12-21T20:16:57.387Z,92.97
2018-12-21T20:19:25.890Z,82.93
2018-12-21T20:21:54.452Z,96.33
2018-12-21T20:24:25.922Z,92.80
2018-12-21T20:26:58.487Z,96.10
2018-12-21T20:29:27.042Z,106.27
2018-12-21T20:31:55.483Z,103.10
2018-12-21T20:34:23.971Z,94.17
2018-12-21T20:36:52.547Z,90.70
2018-12-21T20:39:23.807Z,88.07
2018-12-21T20:41:52.303Z,79.90
2018-12-21T20:44:20.714Z,85.13
2018-12-21T20:46:49.136Z,84.33
2018-12-21T20:49:17.713Z,81.43
2018-12-21T20:51:46.134Z,81.90
2018-12-21T20:54:14.594Z,90.43
2018-12-21T20:56:46.335Z,90.30
2018-12-21T20:59:19.465Z,86.87
2018-12-21T21:01:48.163Z,115.80
2018-12-21T21:04:16.566Z,219.53
2018-12-21T21:06:44.963Z,228.00
2018-12-21T21:09:14.279Z,114.93
2018-12-21T21:11:42.749Z,101.83
2018-12-21T21:14:13.028Z,124.57
2018-12-21T21:16:41.624Z,123.03
2018-12-21T21:19:10.147Z,144.37
2018-12-21T21:21:39.207Z,129.47
2018-12-21T21:24:07.800Z,109.77
2018-12-21T21:26:36.258Z,143.10
2018-12-21T21:29:04.706Z,100.17
2018-12-21T21:31:35.203Z,100.63
2018-12-21T21:34:03.746Z,85.70
2018-12-21T21:36:32.207Z,96.83
2018-12-21T21:39:00.700Z,95.63
2018-12-21T21:41:29.128Z,90.80
2018-12-21T21:43:57.940Z,105.97
2018-12-21T21:46:26.477Z,95.00
2018-12-21T21:48:54.959Z,102.57
2018-12-21T21:51:23.367Z,119.00
2018-12-21T21:53:51.867Z,110.97
2018-12-21T21:56:20.318Z,95.03
2018-12-21T21:58:48.715Z,84.67
2018-12-21T22:01:17.214Z,84.43
2018-12-21T22:03:45.726Z,90.20
2018-12-21T22:06:14.188Z,96.73
2018-12-21T22:08:42.735Z,111.10
2018-12-21T22:11:11.187Z,92.07
2018-12-21T22:13:39.619Z,78.23
2018-12-21T22:16:08.131Z,82.40
2018-12-21T22:18:36.579Z,75.53
2018-12-21T22:21:05.082Z,67.83
2018-12-21T22:23:33.557Z,69.47
2018-12-21T22:26:01.971Z,70.37
2018-12-21T22:28:30.494Z,66.13
2018-12-21T22:30:58.947Z,63.17
2018-12-21T22:33:27.395Z,62.20
2018-12-21T22:35:55.866Z,64.87
2018-12-21T22:38:24.351Z,63.03
2018-12-21T22:40:52.797Z,62.10
2018-12-21T22:43:21.263Z,65.97
2018-12-21T22:45:49.728Z,64.17
2018-12-21T22:48:18.154Z,68.27
2018-12-21T22:50:46.571Z,61.43
2018-12-21T22:53:15.119Z,69.40
2018-12-21T22:55:43.614Z,63.13
2018-12-21T22:58:12.043Z,66.77
2018-12-21T23:00:40.718Z,65.70
2018-12-21T23:03:09.265Z,70.80
2018-12-21T23:05:37.745Z,63.03
2018-12-21T23:08:06.353Z,61.30
2018-12-21T23:10:34.808Z,61.90
2018-12-21T23:13:03.346Z,68.23
2018-12-21T23:15:31.815Z,64.00
2018-12-21T23:18:00.263Z,70.10
2018-12-21T23:20:28.960Z,67.83
2018-12-21T23:22:57.655Z,74.53
2018-12-21T23:25:26.127Z,77.97
2018-12-21T23:27:54.535Z,76.37
2018-12-21T23:30:23.005Z,71.30
2018-12-21T23:32:51.410Z,82.43
2018-12-21T23:35:19.922Z,79.07
2018-12-21T23:37:48.392Z,72.07
2018-12-21T23:40:17.077Z,66.33
2018-12-21T23:42:45.555Z,75.10
2018-12-21T23:45:14.055Z,69.93
2018-12-21T23:47:42.606Z,76.80
2018-12-21T23:50:11.075Z,98.47
2018-12-21T23:52:39.681Z,95.90
2018-12-21T23:55:08.156Z,103.70
2018-12-21T23:57:36.588Z,80.63
